Time;durP1;ratioP1;P1;durP2;ratioP2;P2;SDS_P1;SDS_P2;PMS_P1;PMS_P2;Temp;Humidity;BMP_temperature;BMP_pressure;BME280_temperature;BME280_humidity;BME280_pressure;Samples;Min_cycle;Max_cycle;Signal;HPM_P1;HPM_P2
2022/06/24 00:01:40;;;;;;;;;;;;;;;15.35;100.00;99738.34;5133327;28;19934;-50
2022/06/24 00:04:06;;;;;;;;;;;;;;;15.29;100.00;99741.47;5133020;28;19927;-49
2022/06/24 00:06:43;;;;;;;;;;;;;;;15.30;100.00;99745.03;5133117;28;19977;-50
2022/06/24 00:09:11;;;;;;;;;;;;;;;15.30;100.00;99736.75;5132998;28;19974;-48
2022/06/24 00:11:37;;;;;;;;;;;;;;;15.28;100.00;99739.09;5132925;28;20486;-50
2022/06/24 00:14:04;;;;;;;;;;;;;;;15.24;100.00;99744.59;5132955;28;19953;-49
2022/06/24 00:16:30;;;;;;;;;;;;;;;15.20;100.00;99757.56;5132949;28;19927;-50
2022/06/24 00:19:09;;;;;;;;;;;;;;;15.18;100.00;99753.59;5132781;28;20298;-48
2022/06/24 00:21:35;;;;;;;;;;;;;;;15.17;100.00;99758.34;5133177;28;19931;-48
2022/06/24 00:24:00;;;;;;;;;;;;;;;15.17;100.00;99763.06;5132943;28;20088;-49
2022/06/24 00:26:36;;;;;;;;;;;;;;;15.12;100.00;99763.41;5132746;28;20012;-48
2022/06/24 00:29:02;;;;;;;;;;;;;;;15.10;100.00;99766.56;5133163;28;20357;-49
2022/06/24 00:31:29;;;;;;;;;;;;;;;15.08;100.00;99771.66;5132982;28;19934;-48
2022/06/24 00:33:55;;;;;;;;;;;;;;;15.05;100.00;99780.69;5132742;28;20030;-48
2022/06/24 00:36:21;;;;;;;;;;;;;;;15.03;100.00;99781.09;5132632;28;19927;-49
2022/06/24 00:38:51;;;;;;;;;;;;;;;15.00;100.00;99784.63;5132678;28;20356;-48
2022/06/24 00:41:22;;;;;;;;;;;;;;;14.97;100.00;99784.59;5132637;28;19985;-50
2022/06/24 00:43:52;;;;;;;;;;;;;;;14.90;100.00;99777.03;5132425;28;19927;-48
2022/06/24 00:46:19;;;;;;;;;;;;;;;14.87;100.00;99788.03;5132221;28;19982;-49
2022/06/24 00:48:47;;;;;;;;;;;;;;;14.76;100.00;99791.47;5132325;28;20061;-50
2022/06/24 00:51:14;;;;;;;;;;;;;;;14.77;100.00;99800.53;5131950;27;19927;-50
2022/06/24 00:53:40;;;;;;;;;;;;;;;14.75;100.00;99787.09;5132122;28;19975;-49
2022/06/24 00:56:07;;;;;;;;;;;;;;;14.73;100.00;99786.69;5132406;28;19934;-49
2022/06/24 00:58:33;;;;;;;;;;;;;;;14.69;100.00;99779.53;5132236;28;19985;-49
2022/06/24 01:00:59;;;;;;;;;;;;;;;14.67;100.00;99787.41;5132233;28;19927;-50
2022/06/24 01:03:34;;;;;;;;;;;;;;;14.68;100.00;99798.06;5132102;28;19935;-49
2022/06/24 01:06:01;;;;;;;;;;;;;;;14.62;100.00;99791.28;5132284;28;19927;-50
2022/06/24 01:08:27;;;;;;;;;;;;;;;14.66;100.00;99800.44;5132106;28;19985;-49
2022/06/24 01:10:53;;;;;;;;;;;;;;;14.65;100.00;99804.34;5132025;28;19927;-48
2022/06/24 01:13:19;;;;;;;;;;;;;;;14.66;100.00;99803.19;5131896;28;20344;-48
2022/06/24 01:15:45;;;;;;;;;;;;;;;14.65;100.00;99809.84;5132208;28;20332;-48
2022/06/24 01:18:11;;;;;;;;;;;;;;;14.60;100.00;99799.16;5131948;28;19927;-49
2022/06/24 01:20:37;;;;;;;;;;;;;;;14.61;100.00;99811.78;5132019;28;19973;-48
2022/06/24 01:23:03;;;;;;;;;;;;;;;14.56;100.00;99810.16;5131910;28;19992;-49
2022/06/24 01:25:30;;;;;;;;;;;;;;;14.57;100.00;99810.97;5131880;28;19927;-48
2022/06/24 01:27:56;;;;;;;;;;;;;;;14.58;100.00;99813.31;5131906;28;20405;-51
2022/06/24 01:30:22;;;;;;;;;;;;;;;14.56;100.00;99812.09;5131680;28;19927;-49
2022/06/24 01:32:48;;;;;;;;;;;;;;;14.55;100.00;99805.78;5131790;28;19927;-49
2022/06/24 01:35:14;;;;;;;;;;;;;;;14.51;100.00;99807.72;5131612;28;20064;-50
2022/06/24 01:37:40;;;;;;;;;;;;;;;14.47;100.00;99812.38;5131710;28;19931;-52
2022/06/24 01:40:08;;;;;;;;;;;;;;;14.46;100.00;99808.03;5131942;28;20471;-49
2022/06/24 01:42:34;;;;;;;;;;;;;;;14.46;100.00;99813.56;5131461;28;20302;-49
2022/06/24 01:45:00;;;;;;;;;;;;;;;14.48;100.00;99816.72;5131685;28;19934;-48
2022/06/24 01:47:26;;;;;;;;;;;;;;;14.47;100.00;99822.63;5131717;28;19927;-49
2022/06/24 01:49:52;;;;;;;;;;;;;;;14.46;100.00;99808.03;5131596;28;19927;-52
2022/06/24 01:52:18;;;;;;;;;;;;;;;14.45;100.00;99806.44;5131481;28;19934;-49
2022/06/24 01:54:44;;;;;;;;;;;;;;;14.48;100.00;99808.44;5131540;28;19932;-53
2022/06/24 01:57:11;;;;;;;;;;;;;;;14.49;100.00;99809.22;5131368;28;19986;-51
2022/06/24 01:59:37;;;;;;;;;;;;;;;14.48;100.00;99807.66;5131374;28;19928;-53
2022/06/24 02:02:03;;;;;;;;;;;;;;;14.48;100.00;99810.41;5131266;28;19935;-51
2022/06/24 02:04:29;;;;;;;;;;;;;;;14.48;100.00;99805.69;5130929;27;20408;-50
2022/06/24 02:06:55;;;;;;;;;;;;;;;14.51;100.00;99815.22;5131241;28;19938;-51
2022/06/24 02:09:20;;;;;;;;;;;;;;;14.50;100.00;99811.66;5131185;28;19928;-52
2022/06/24 02:14:31;;;;;;;;;;;;;;;14.53;100.00;99808.16;5131178;28;20025;-50
2022/06/24 02:16:57;;;;;;;;;;;;;;;14.60;100.00;99815.72;5131116;28;19981;-50
2022/06/24 02:19:23;;;;;;;;;;;;;;;14.68;100.00;99813.84;5131085;28;19934;-48
2022/06/24 02:21:49;;;;;;;;;;;;;;;14.74;100.00;99820.63;5131026;28;19934;-49
2022/06/24 02:24:15;;;;;;;;;;;;;;;15.26;100.00;99829.81;5130884;28;19928;-48
2022/06/24 02:26:42;;;;;;;;;;;;;;;15.79;100.00;99839.78;5131065;28;19934;-49
2022/06/24 02:29:08;;;;;;;;;;;;;;;16.29;100.00;99840.88;5130926;28;19927;-49
2022/06/24 02:31:34;;;;;;;;;;;;;;;16.60;100.00;99786.88;5131037;28;19927;-50
2022/06/24 02:34:00;;;;;;;;;;;;;;;17.02;100.00;99671.84;5131064;28;19927;-51
2022/06/24 02:36:26;;;;;;;;;;;;;;;17.36;100.00;99560.56;5131102;28;19981;-49
2022/06/24 02:38:52;;;;;;;;;;;;;;;17.68;100.00;99430.13;5130740;28;19934;-49
2022/06/24 02:41:18;;;;;;;;;;;;;;;17.91;100.00;99312.34;5130684;28;20018;-49
2022/06/24 02:43:44;;;;;;;;;;;;;;;18.14;100.00;99173.78;5130600;28;19934;-49
2022/06/24 02:46:11;;;;;;;;;;;;;;;18.41;100.00;99087.00;5130901;28;19953;-51
2022/06/24 02:48:38;;;;;;;;;;;;;;;18.70;100.00;99031.81;5130782;28;19986;-49
2022/06/24 02:51:05;;;;;;;;;;;;;;;18.95;100.00;98971.03;5130896;28;20424;-49
2022/06/24 02:53:32;;;;;;;;;;;;;;;19.24;100.00;98862.88;5130883;28;19927;-50
2022/06/24 02:56:00;;;;;;;;;;;;;;;19.44;100.00;98807.25;5130643;28;20313;-49
2022/06/24 02:58:26;;;;;;;;;;;;;;;19.73;100.00;98740.63;5130699;28;19934;-51
2022/06/24 03:00:52;;;;;;;;;;;;;;;20.08;100.00;98681.66;5130470;28;20018;-50
2022/06/24 03:03:19;;;;;;;;;;;;;;;20.28;100.00;98618.25;5130419;28;19927;-51
2022/06/24 03:05:46;;;;;;;;;;;;;;;20.41;100.00;98520.84;5130268;28;19935;-52
2022/06/24 03:08:13;;;;;;;;;;;;;;;20.58;100.00;98524.28;5130424;28;20472;-49
2022/06/24 03:10:39;;;;;;;;;;;;;;;20.88;100.00;98498.59;5130256;28;19941;-50
2022/06/24 03:13:05;;;;;;;;;;;;;;;21.11;100.00;98455.56;5130591;28;19927;-49
2022/06/24 03:15:32;;;;;;;;;;;;;;;21.32;100.00;98430.94;5132003;27;20429;-51
2022/06/24 03:17:58;;;;;;;;;;;;;;;21.56;100.00;98420.91;5133951;28;19931;-50
2022/06/24 03:20:24;;;;;;;;;;;;;;;21.71;100.00;98423.13;5133978;28;20328;-52
2022/06/24 03:22:50;;;;;;;;;;;;;;;21.80;100.00;98390.47;5133604;28;19927;-52
2022/06/24 03:25:16;;;;;;;;;;;;;;;21.84;100.00;98387.53;5133914;28;19934;-52
2022/06/24 03:27:42;;;;;;;;;;;;;;;22.18;100.00;98357.84;5133732;28;19958;-53
2022/06/24 03:30:09;;;;;;;;;;;;;;;22.37;100.00;98355.88;5133793;28;19927;-51
2022/06/24 03:32:35;;;;;;;;;;;;;;;22.69;100.00;98341.28;5133584;28;19938;-53
2022/06/24 03:35:01;;;;;;;;;;;;;;;22.92;100.00;98327.88;5133503;28;19928;-50
2022/06/24 03:37:28;;;;;;;;;;;;;;;23.02;100.00;98321.84;5133361;28;19928;-51
2022/06/24 03:39:55;;;;;;;;;;;;;;;23.38;100.00;98319.38;5133691;28;19927;-53
2022/06/24 03:42:21;;;;;;;;;;;;;;;23.52;100.00;98323.53;5133550;28;19972;-51
2022/06/24 03:44:47;;;;;;;;;;;;;;;23.66;100.00;98329.22;5133391;28;19931;-51
2022/06/24 03:47:13;;;;;;;;;;;;;;;23.75;100.00;98319.25;5133330;28;19933;-50
2022/06/24 03:49:39;;;;;;;;;;;;;;;24.19;100.00;98336.22;5133283;28;19927;-50
2022/06/24 03:52:06;;;;;;;;;;;;;;;24.10;100.00;98328.66;5133551;28;19927;-51
2022/06/24 03:54:32;;;;;;;;;;;;;;;23.93;100.00;98331.13;5133332;28;20364;-51
2022/06/24 03:56:59;;;;;;;;;;;;;;;24.25;100.00;98333.53;5133292;28;19928;-51
2022/06/24 03:59:25;;;;;;;;;;;;;;;24.63;100.00;98341.22;5133304;28;19931;-54
2022/06/24 04:01:51;;;;;;;;;;;;;;;25.03;100.00;98351.13;5133514;28;19927;-52
2022/06/24 04:04:17;;;;;;;;;;;;;;;25.11;100.00;98361.47;5132940;28;20308;-49
2022/06/24 04:06:42;;;;;;;;;;;;;;;25.39;100.00;98366.81;5133253;28;19981;-50
2022/06/24 04:09:09;;;;;;;;;;;;;;;25.63;100.00;98374.31;5133254;28;20359;-50
2022/06/24 04:11:35;;;;;;;;;;;;;;;25.93;100.00;98405.94;5133111;28;19938;-51
2022/06/24 04:14:01;;;;;;;;;;;;;;;26.07;100.00;98401.53;5133025;28;19928;-50
2022/06/24 04:16:28;;;;;;;;;;;;;;;26.42;100.00;98421.16;5133001;28;19927;-50
2022/06/24 04:18:54;;;;;;;;;;;;;;;26.64;100.00;98545.16;5133117;28;20093;-50
2022/06/24 04:21:20;;;;;;;;;;;;;;;26.84;100.00;98481.78;5132777;28;19927;-52
2022/06/24 04:23:49;;;;;;;;;;;;;;;27.00;100.00;98568.41;5132898;28;19935;-53
2022/06/24 04:26:15;;;;;;;;;;;;;;;27.29;100.00;98604.09;5131639;27;20325;-54
2022/06/24 04:28:41;;;;;;;;;;;;;;;27.21;100.00;98586.84;5132544;28;20010;-54
2022/06/24 04:31:07;;;;;;;;;;;;;;;27.32;100.00;98616.41;5132490;28;20416;-54
2022/06/24 04:33:33;;;;;;;;;;;;;;;27.65;100.00;98619.59;5133102;28;19927;-50
2022/06/24 04:35:59;;;;;;;;;;;;;;;27.08;100.00;98600.47;5132479;28;19927;-52
2022/06/24 04:38:25;;;;;;;;;;;;;;;27.73;100.00;98583.34;5132702;28;19927;-51
2022/06/24 04:40:52;;;;;;;;;;;;;;;28.47;100.00;98680.69;5132580;28;19964;-52
2022/06/24 04:43:17;;;;;;;;;;;;;;;27.74;100.00;98705.22;5132417;28;20065;-51
2022/06/24 04:45:43;;;;;;;;;;;;;;;26.99;100.00;98621.09;5132489;28;19931;-50
2022/06/24 04:48:10;;;;;;;;;;;;;;;27.40;100.00;98671.03;5132281;28;19927;-51
2022/06/24 04:50:36;;;;;;;;;;;;;;;28.17;100.00;98703.44;5132606;28;20031;-50
2022/06/24 04:53:03;;;;;;;;;;;;;;;28.13;100.00;98708.50;5132220;28;20408;-55
2022/06/24 04:55:29;;;;;;;;;;;;;;;28.11;100.00;98731.53;5132202;28;19988;-55
2022/06/24 04:57:55;;;;;;;;;;;;;;;28.22;100.00;98654.03;5132065;28;20017;-55
2022/06/24 05:00:21;;;;;;;;;;;;;;;28.65;100.00;98707.75;5131901;28;19981;-55
2022/06/24 05:02:48;;;;;;;;;;;;;;;28.74;100.00;98730.91;5131896;28;19931;-54
2022/06/24 05:05:14;;;;;;;;;;;;;;;29.25;100.00;98801.88;5132067;28;20433;-53
2022/06/24 05:07:40;;;;;;;;;;;;;;;29.42;100.00;98791.47;5132022;28;19934;-55
2022/06/24 05:10:07;;;;;;;;;;;;;;;29.66;100.00;98781.91;5132343;28;20016;-55
2022/06/24 05:12:33;;;;;;;;;;;;;;;30.16;100.00;98787.78;5132334;28;20045;-56
2022/06/24 05:14:59;;;;;;;;;;;;;;;30.00;100.00;98802.59;5132027;28;19934;-53
2022/06/24 05:17:26;;;;;;;;;;;;;;;30.14;100.00;98831.97;5132175;28;19927;-55
2022/06/24 05:19:52;;;;;;;;;;;;;;;30.11;100.00;98791.34;5131679;28;19927;-55
2022/06/24 05:22:18;;;;;;;;;;;;;;;29.91;100.00;98797.16;5131874;28;20347;-52
2022/06/24 05:24:44;;;;;;;;;;;;;;;30.44;100.00;98832.34;5131705;28;20334;-55
2022/06/24 05:27:11;;;;;;;;;;;;;;;30.37;100.00;98821.53;5131649;28;19928;-52
2022/06/24 05:29:37;;;;;;;;;;;;;;;30.53;100.00;98788.94;5131599;28;20030;-52
2022/06/24 05:32:03;;;;;;;;;;;;;;;30.47;100.00;98842.66;5131958;28;19931;-55
2022/06/24 05:34:29;;;;;;;;;;;;;;;30.11;100.00;98869.72;5131552;28;19928;-52
2022/06/24 05:36:55;;;;;;;;;;;;;;;30.24;100.00;98836.13;5131531;28;19965;-57
2022/06/24 05:39:22;;;;;;;;;;;;;;;30.51;100.00;98837.50;5131139;27;20059;-56
2022/06/24 05:41:48;;;;;;;;;;;;;;;31.36;100.00;98832.78;5131458;28;20417;-63
2022/06/24 05:44:14;;;;;;;;;;;;;;;31.36;100.00;98821.44;5131433;28;19927;-58
2022/06/24 05:46:40;;;;;;;;;;;;;;;30.61;100.00;98813.38;5131426;28;19935;-61
2022/06/24 05:49:06;;;;;;;;;;;;;;;31.41;100.00;98844.09;5131614;28;19935;-63
2022/06/24 05:51:34;;;;;;;;;;;;;;;31.38;100.00;98830.19;5131282;28;19927;-59
2022/06/24 05:56:45;;;;;;;;;;;;;;;31.27;100.00;98861.31;5131341;28;19937;-64
2022/06/24 05:59:11;;;;;;;;;;;;;;;31.34;100.00;98821.19;5131172;28;19934;-59
2022/06/24 06:01:37;;;;;;;;;;;;;;;31.35;100.00;98859.53;5131227;28;19931;-55
2022/06/24 06:04:03;;;;;;;;;;;;;;;31.29;100.00;98831.22;5131035;28;19978;-55
2022/06/24 06:06:29;;;;;;;;;;;;;;;30.74;100.00;98810.03;5131266;28;19927;-55
2022/06/24 06:08:57;;;;;;;;;;;;;;;31.77;100.00;98860.53;5130868;28;19928;-56
2022/06/24 06:11:24;;;;;;;;;;;;;;;31.57;100.00;98844.59;5131142;28;20038;-54
2022/06/24 06:13:51;;;;;;;;;;;;;;;31.38;100.00;98842.28;5130953;28;19927;-54
2022/06/24 06:16:17;;;;;;;;;;;;;;;31.57;100.00;98833.25;5131017;28;20355;-52
2022/06/24 06:18:44;;;;;;;;;;;;;;;31.85;100.00;98850.97;5130855;28;19927;-54
2022/06/24 06:21:10;;;;;;;;;;;;;;;31.88;100.00;98861.28;5131001;28;20420;-54
2022/06/24 06:23:37;;;;;;;;;;;;;;;32.28;100.00;98847.75;5130776;28;19928;-58
2022/06/24 06:26:04;;;;;;;;;;;;;;;32.11;100.00;98866.91;5131436;28;20293;-54
2022/06/24 06:28:30;;;;;;;;;;;;;;;32.30;100.00;98845.19;5130682;28;20463;-52
2022/06/24 06:30:58;;;;;;;;;;;;;;;32.98;100.00;98868.31;5130904;28;19927;-53
2022/06/24 06:33:24;;;;;;;;;;;;;;;33.00;100.00;98879.94;5130840;28;19934;-50
2022/06/24 06:35:50;;;;;;;;;;;;;;;32.69;100.00;98874.66;5130368;28;19931;-52
2022/06/24 06:38:16;;;;;;;;;;;;;;;31.76;100.00;98888.09;5130367;28;19977;-53
2022/06/24 06:40:43;;;;;;;;;;;;;;;32.69;100.00;98861.28;5130279;28;20401;-53
2022/06/24 06:43:09;;;;;;;;;;;;;;;32.67;100.00;98877.28;5130629;28;20022;-51
2022/06/24 06:45:35;;;;;;;;;;;;;;;32.49;100.00;98895.66;5130401;28;19931;-50
2022/06/24 06:48:02;;;;;;;;;;;;;;;33.14;100.00;98902.81;5130512;28;19928;-51
2022/06/24 06:50:28;;;;;;;;;;;;;;;33.01;100.00;98943.94;5131932;27;20426;-53
2022/06/24 06:52:54;;;;;;;;;;;;;;;33.39;100.00;98910.13;5134572;28;19979;-53
2022/06/24 06:55:20;;;;;;;;;;;;;;;33.35;100.00;98934.41;5133972;28;20459;-53
2022/06/24 06:57:46;;;;;;;;;;;;;;;33.71;100.00;98955.09;5134041;28;20477;-55
2022/06/24 07:00:13;;;;;;;;;;;;;;;32.75;100.00;98941.47;5134016;28;19934;-52
2022/06/24 07:02:39;;;;;;;;;;;;;;;32.97;100.00;98988.88;5133846;28;19976;-55
2022/06/24 07:05:07;;;;;;;;;;;;;;;32.61;100.00;98979.47;5133838;28;19931;-53
2022/06/24 07:07:33;;;;;;;;;;;;;;;31.03;100.00;98990.00;5133691;28;19927;-54
2022/06/24 07:09:59;;;;;;;;;;;;;;;31.34;100.00;98945.81;5133827;28;19928;-53
2022/06/24 07:12:25;;;;;;;;;;;;;;;31.35;100.00;98948.09;5133671;28;20022;-51
2022/06/24 07:14:51;;;;;;;;;;;;;;;30.46;100.00;98988.19;5133546;28;19963;-54
2022/06/24 07:17:17;;;;;;;;;;;;;;;29.38;100.00;98929.28;5133670;28;19927;-55
2022/06/24 07:19:43;;;;;;;;;;;;;;;29.51;100.00;98900.63;5133577;28;19927;-48
2022/06/24 07:22:10;;;;;;;;;;;;;;;30.45;100.00;98947.03;5133579;28;19927;-49
2022/06/24 07:24:36;;;;;;;;;;;;;;;31.36;100.00;98968.72;5133819;28;20003;-49
2022/06/24 07:27:03;;;;;;;;;;;;;;;30.82;100.00;98941.28;5133870;28;19927;-50
2022/06/24 07:29:31;;;;;;;;;;;;;;;31.86;100.00;98939.63;5133428;28;19950;-51
2022/06/24 07:31:57;;;;;;;;;;;;;;;32.44;100.00;98967.41;5133620;28;19928;-52
2022/06/24 07:34:23;;;;;;;;;;;;;;;32.07;100.00;98982.66;5133422;28;19927;-51
2022/06/24 07:36:49;;;;;;;;;;;;;;;31.38;100.00;98981.06;5133407;28;19981;-49
2022/06/24 07:39:15;;;;;;;;;;;;;;;31.72;100.00;98998.09;5133473;28;19935;-51
2022/06/24 07:41:41;;;;;;;;;;;;;;;31.69;100.00;99002.00;5133461;28;19972;-50
2022/06/24 07:44:07;;;;;;;;;;;;;;;31.42;100.00;98975.16;5133093;28;19927;-52
2022/06/24 07:46:33;;;;;;;;;;;;;;;30.18;100.00;98943.53;5133321;28;19938;-49
2022/06/24 07:48:59;;;;;;;;;;;;;;;31.31;100.00;98944.72;5133110;28;19927;-49
2022/06/24 07:51:25;;;;;;;;;;;;;;;32.16;100.00;98973.09;5133401;28;19938;-49
2022/06/24 07:53:51;;;;;;;;;;;;;;;31.31;100.00;98964.56;5132981;28;19934;-50
2022/06/24 07:59:02;;;;;;;;;;;;;;;31.60;98.45;99013.56;5133305;28;19992;-49
2022/06/24 08:01:28;;;;;;;;;;;;;;;32.06;100.00;98996.06;5132873;27;19927;-50
2022/06/24 08:03:54;;;;;;;;;;;;;;;32.40;100.00;98987.50;5133021;28;19934;-50
2022/06/24 08:06:20;;;;;;;;;;;;;;;31.59;97.07;99018.47;5132819;28;20410;-50
2022/06/24 08:08:46;;;;;;;;;;;;;;;31.90;97.33;99021.59;5133124;28;19939;-52
2022/06/24 08:11:12;;;;;;;;;;;;;;;30.98;100.00;98968.09;5132874;28;19927;-55
2022/06/24 08:13:39;;;;;;;;;;;;;;;31.39;100.00;98976.22;5132763;28;20236;-51
2022/06/24 08:16:05;;;;;;;;;;;;;;;31.21;100.00;98954.00;5132620;28;20026;-50
2022/06/24 08:18:31;;;;;;;;;;;;;;;31.59;100.00;98967.47;5132525;28;19927;-49
2022/06/24 08:20:57;;;;;;;;;;;;;;;31.52;100.00;98958.69;5132692;28;19953;-48
2022/06/24 08:23:23;;;;;;;;;;;;;;;31.25;100.00;98941.13;5132765;28;19934;-49
2022/06/24 08:25:49;;;;;;;;;;;;;;;30.86;100.00;98941.06;5132856;28;20386;-49
2022/06/24 08:28:15;;;;;;;;;;;;;;;31.15;100.00;98932.09;5132481;28;19931;-50
2022/06/24 08:30:42;;;;;;;;;;;;;;;30.84;100.00;98912.47;5132480;28;19927;-47
2022/06/24 08:33:10;;;;;;;;;;;;;;;30.56;100.00;98941.44;5131626;28;20128;-48
2022/06/24 08:35:36;;;;;;;;;;;;;;;31.13;100.00;98919.75;5132379;28;19928;-50
2022/06/24 08:38:02;;;;;;;;;;;;;;;30.93;100.00;98924.34;5132254;28;19942;-49
2022/06/24 08:40:28;;;;;;;;;;;;;;;31.47;100.00;98922.66;5132470;28;19927;-47
2022/06/24 08:42:55;;;;;;;;;;;;;;;32.27;100.00;98930.53;5132499;28;19976;-49
2022/06/24 08:45:21;;;;;;;;;;;;;;;30.99;100.00;98903.75;5132775;28;20297;-51
2022/06/24 08:47:48;;;;;;;;;;;;;;;31.75;100.00;98926.22;5132417;28;20675;-47
2022/06/24 08:50:14;;;;;;;;;;;;;;;30.95;100.00;98937.97;5132183;28;20342;-50
2022/06/24 08:52:45;;;;;;;;;;;;;;;32.12;100.00;98942.16;5132246;28;20016;-49
2022/06/24 08:55:14;;;;;;;;;;;;;;;32.53;100.00;98925.31;5131601;28;20424;-49
2022/06/24 08:57:40;;;;;;;;;;;;;;;32.13;100.00;98934.47;5132000;28;20028;-48
2022/06/24 09:00:07;;;;;;;;;;;;;;;31.55;100.00;98932.16;5131657;28;19927;-47
2022/06/24 09:02:33;;;;;;;;;;;;;;;31.67;100.00;98930.09;5131966;28;19934;-47
2022/06/24 09:05:00;;;;;;;;;;;;;;;31.65;100.00;98959.72;5131554;28;19928;-48
2022/06/24 09:07:26;;;;;;;;;;;;;;;32.10;94.22;98990.13;5131982;28;19928;-47
2022/06/24 09:09:59;;;;;;;;;;;;;;;32.16;99.52;98970.25;5131994;28;19927;-47
2022/06/24 09:12:27;;;;;;;;;;;;;;;32.77;100.00;98947.41;5131252;27;19932;-46
2022/06/24 09:14:53;;;;;;;;;;;;;;;32.24;100.00;98946.53;5131670;28;19928;-47
2022/06/24 09:17:27;;;;;;;;;;;;;;;32.47;100.00;98963.53;5131792;28;19934;-49
2022/06/24 09:19:52;;;;;;;;;;;;;;;32.29;100.00;98942.13;5131792;28;19982;-47
2022/06/24 09:22:22;;;;;;;;;;;;;;;32.49;100.00;98938.22;5131456;28;19928;-50
2022/06/24 09:24:50;;;;;;;;;;;;;;;32.46;100.00;98916.59;5131752;28;20025;-48
2022/06/24 09:27:16;;;;;;;;;;;;;;;32.55;100.00;98936.13;5131461;28;20294;-48
2022/06/24 09:29:46;;;;;;;;;;;;;;;32.79;100.00;98944.81;5131801;28;19927;-50
2022/06/24 09:32:12;;;;;;;;;;;;;;;32.18;100.00;98911.75;5131381;28;19934;-49
2022/06/24 09:34:38;;;;;;;;;;;;;;;31.48;100.00;98864.69;5131467;28;19927;-51
2022/06/24 09:37:05;;;;;;;;;;;;;;;31.47;100.00;98868.81;5131494;28;19927;-54
2022/06/24 09:39:32;;;;;;;;;;;;;;;30.88;100.00;98882.63;5131267;28;19934;-52
2022/06/24 09:41:58;;;;;;;;;;;;;;;30.48;100.00;98898.69;5131263;28;19934;-54
2022/06/24 09:44:24;;;;;;;;;;;;;;;30.42;100.00;98868.84;5131025;28;19927;-50
2022/06/24 09:47:01;;;;;;;;;;;;;;;30.16;100.00;98875.41;5131511;28;20356;-54
2022/06/24 09:49:28;;;;;;;;;;;;;;;30.83;100.00;98899.63;5131309;28;19927;-52
2022/06/24 09:51:54;;;;;;;;;;;;;;;31.65;100.00;98886.03;5131641;28;19927;-51
2022/06/24 09:54:21;;;;;;;;;;;;;;;31.55;100.00;98912.31;5131121;28;20453;-53
2022/06/24 09:56:48;;;;;;;;;;;;;;;32.00;100.00;98881.13;5131403;28;20018;-52
2022/06/24 10:01:59;;;;;;;;;;;;;;;31.90;100.00;98896.88;5131262;28;19934;-55
2022/06/24 10:04:25;;;;;;;;;;;;;;;32.10;100.00;98871.03;5131083;28;19937;-54
2022/06/24 10:06:52;;;;;;;;;;;;;;;31.48;100.00;98851.28;5130916;28;19935;-53
2022/06/24 10:09:20;;;;;;;;;;;;;;;30.79;100.00;98857.44;5131038;28;19927;-53
2022/06/24 10:11:47;;;;;;;;;;;;;;;30.38;100.00;98852.13;5131223;28;19932;-50
2022/06/24 10:14:14;;;;;;;;;;;;;;;30.36;100.00;98846.22;5131162;28;19971;-49
2022/06/24 10:16:41;;;;;;;;;;;;;;;30.33;100.00;98847.22;5130842;28;20341;-50
2022/06/24 10:19:08;;;;;;;;;;;;;;;30.53;100.00;98837.78;5131197;28;19931;-47
2022/06/24 10:21:34;;;;;;;;;;;;;;;30.74;100.00;98846.81;5130728;28;19934;-49
2022/06/24 10:24:10;;;;;;;;;;;;;;;30.52;100.00;98841.09;5131585;27;19934;-46
2022/06/24 10:26:38;;;;;;;;;;;;;;;30.89;100.00;98830.44;5134397;28;19970;-48
2022/06/24 10:29:19;;;;;;;;;;;;;;;30.45;100.00;98829.00;5134378;28;19935;-47
2022/06/24 10:31:53;;;;;;;;;;;;;;;29.67;100.00;98815.28;5134595;28;19942;-47
2022/06/24 10:34:30;;;;;;;;;;;;;;;29.15;100.00;98806.94;5134216;28;19927;-47
2022/06/24 10:36:58;;;;;;;;;;;;;;;29.46;100.00;98752.50;5134584;28;20301;-48
2022/06/24 10:39:27;;;;;;;;;;;;;;;29.83;100.00;98754.50;5134093;28;20386;-46
2022/06/24 10:41:58;;;;;;;;;;;;;;;29.51;100.00;98767.91;5134624;28;19928;-48
2022/06/24 10:44:25;;;;;;;;;;;;;;;29.56;100.00;98775.66;5133990;28;19928;-46
2022/06/24 10:47:06;;;;;;;;;;;;;;;29.38;100.00;98745.75;5134401;28;19989;-47
2022/06/24 10:49:46;;;;;;;;;;;;;;;28.82;100.00;98757.41;5133967;28;19927;-47
2022/06/24 10:52:32;;;;;;;;;;;;;;;28.35;100.00;98753.81;5133074;28;20309;-48
2022/06/24 10:55:13;;;;;;;;;;;;;;;28.71;100.00;98791.13;5133962;28;19929;-46
2022/06/24 10:57:39;;;;;;;;;;;;;;;28.74;100.00;98741.41;5133369;28;19930;-46
2022/06/24 11:00:09;;;;;;;;;;;;;;;28.25;100.00;98723.47;5134027;28;20443;-48
2022/06/24 11:02:35;;;;;;;;;;;;;;;28.14;100.00;98739.00;5133981;28;19931;-50
2022/06/24 11:05:01;;;;;;;;;;;;;;;28.39;100.00;98725.47;5134190;28;19927;-49
2022/06/24 11:07:28;;;;;;;;;;;;;;;28.41;100.00;98677.81;5133869;28;19934;-45
2022/06/24 11:09:55;;;;;;;;;;;;;;;28.74;100.00;98733.72;5134016;28;20390;-48
2022/06/24 11:12:28;;;;;;;;;;;;;;;28.48;100.00;98753.47;5134024;28;19937;-46
2022/06/24 11:14:54;;;;;;;;;;;;;;;28.37;100.00;98754.13;5133953;28;20389;-48
2022/06/24 11:17:23;;;;;;;;;;;;;;;28.58;100.00;98708.97;5133762;28;20474;-47
2022/06/24 11:19:49;;;;;;;;;;;;;;;28.04;100.00;98717.13;5133663;28;19934;-44
2022/06/24 11:22:15;;;;;;;;;;;;;;;28.25;100.00;98732.72;5133704;28;19931;-48
2022/06/24 11:24:42;;;;;;;;;;;;;;;28.41;100.00;98722.91;5133498;28;19928;-46
2022/06/24 11:27:09;;;;;;;;;;;;;;;27.91;100.00;98672.41;5133515;28;20056;-45
2022/06/24 11:29:54;;;;;;;;;;;;;;;27.79;100.00;98631.31;5133617;28;19977;-47
2022/06/24 11:32:20;;;;;;;;;;;;;;;28.07;100.00;98618.28;5133559;28;20337;-49
2022/06/24 11:34:48;;;;;;;;;;;;;;;28.42;100.00;98673.69;5133775;28;20355;-49
2022/06/24 11:37:14;;;;;;;;;;;;;;;27.83;100.00;98665.69;5133003;27;20394;-47
2022/06/24 11:39:40;;;;;;;;;;;;;;;27.83;100.00;98635.47;5133768;28;19927;-46
2022/06/24 11:42:06;;;;;;;;;;;;;;;27.65;100.00;98630.88;5133639;28;20333;-46
2022/06/24 11:44:33;;;;;;;;;;;;;;;27.28;100.00;98646.81;5133562;28;19933;-47
2022/06/24 11:46:59;;;;;;;;;;;;;;;27.13;100.00;98632.81;5133342;28;19928;-48
2022/06/24 11:49:26;;;;;;;;;;;;;;;27.51;100.00;98594.38;5133278;28;19938;-50
2022/06/24 11:51:52;;;;;;;;;;;;;;;27.57;100.00;98609.28;5133087;28;19971;-49
2022/06/24 11:54:18;;;;;;;;;;;;;;;27.59;100.00;98599.09;5133076;28;19928;-47
2022/06/24 11:56:44;;;;;;;;;;;;;;;27.75;100.00;98631.50;5133200;28;19934;-47
2022/06/24 11:59:11;;;;;;;;;;;;;;;27.24;100.00;98672.34;5132931;28;20408;-46
2022/06/24 12:01:39;;;;;;;;;;;;;;;27.46;100.00;98652.16;5133263;28;19934;-48
2022/06/24 12:04:07;;;;;;;;;;;;;;;27.12;100.00;98636.84;5133020;28;19928;-46
2022/06/24 12:06:33;;;;;;;;;;;;;;;27.21;100.00;98622.66;5132959;28;19952;-47
2022/06/24 12:08:59;;;;;;;;;;;;;;;27.17;100.00;98620.06;5132808;28;19985;-46
2022/06/24 12:11:25;;;;;;;;;;;;;;;27.35;100.00;98629.50;5133049;28;19938;-48
2022/06/24 12:13:58;;;;;;;;;;;;;;;26.88;100.00;98614.50;5132850;28;19927;-50
2022/06/24 12:16:24;;;;;;;;;;;;;;;26.95;100.00;98620.50;5133316;28;19973;-49
2022/06/24 12:18:51;;;;;;;;;;;;;;;27.28;100.00;98621.47;5133100;28;19927;-46
2022/06/24 12:21:24;;;;;;;;;;;;;;;27.02;100.00;98588.38;5132845;28;20463;-46
2022/06/24 12:23:50;;;;;;;;;;;;;;;27.25;100.00;98588.69;5132712;28;19927;-49
2022/06/24 12:26:16;;;;;;;;;;;;;;;27.07;100.00;98576.44;5132561;28;20360;-47
2022/06/24 12:28:43;;;;;;;;;;;;;;;27.09;100.00;98585.16;5132646;28;20298;-46
2022/06/24 12:31:10;;;;;;;;;;;;;;;27.33;100.00;98547.59;5132549;28;19927;-48
2022/06/24 12:33:48;;;;;;;;;;;;;;;27.39;100.00;98585.00;5132797;28;19927;-50
2022/06/24 12:36:15;;;;;;;;;;;;;;;27.33;100.00;98579.34;5132522;28;19932;-47
2022/06/24 12:38:42;;;;;;;;;;;;;;;27.16;100.00;98587.56;5132644;28;20351;-46
2022/06/24 12:41:10;;;;;;;;;;;;;;;26.65;100.00;98562.81;5132366;28;19932;-49
2022/06/24 12:43:36;;;;;;;;;;;;;;;27.05;100.00;98556.44;5132376;28;19927;-47
2022/06/24 12:46:03;;;;;;;;;;;;;;;26.85;100.00;98545.97;5132475;28;19934;-49
2022/06/24 12:51:13;;;;;;;;;;;;;;;26.37;100.00;98559.56;5132432;28;19934;-49